Franklin, IN

4:21 AM EST on February 14, 2016 (GMT -0500)
SE of Franklin, IN | | Change Station
CLOSE
Current Station
Personal Weather Station
Location: Franklin, IN
Elevation: 751 ft
Nearby Weather Stations
Active Advisory: Winter Weather Advisory

Elev 751 ft 39.45 °N, 86.00 °W | Updated 30 seconds ago

Overcast
Overcast
14.5 °F
Feels Like 5 °F
N
6.0
Wind Variable Wind from ESE
Gusts 15.0 mph

Today
High -- | Low -- °F
--% Chance of Precip.
Yesterday
High -- | Low -- °F
Precip. -- in
Pressure 30.49 in
Visibility 10.0 miles
Clouds Scattered Clouds 12000 ft
Windchill 5 °F
Dew Point 6 °F
Humidity 69%
Rainfall 0.00 in
Snow Depth Not available.
7:37 AM 6:19 PM
Waxing Crescent, 40% visible
METAR KGEZ 140853Z AUTO 10009KT 10SM SCT120 M10/M17 A3044 RMK AO2 SLP323 T11001167 58004
Pressure 30.49 in
Visibility 10.0 miles
Clouds Scattered Clouds 12000 ft
Windchill 5 °F
Dew Point 6 °F
Humidity 69%
Rainfall 0.00 in
Snow Depth Not available.
7:37 AM 6:19 PM
Waxing Crescent, 40% visible
METAR KGEZ 140853Z AUTO 10009KT 10SM SCT120 M10/M17 A3044 RMK AO2 SLP323 T11001167 58004

10-Day Weather Forecast

Almanac

Astronomy

Feb. 14, 2016 Rise Set
Actual Time
Civil Twilight
Nautical Twilight
Astronomical Twilight
Moon
Length of Visible Light
Length of Day
Tomorrow will be .
, % of the Moon is Illuminated

Today's Extremes

State Highs State Lows

Community

WunderPhotos

Upload Photos

1,892,761 photos uploaded!

WunderBlog® & News

Nearby

Air Quality

  Air Quality AQ Index Pollutant
Not available.

Snow Depth

Station Depth Elevation

Earthquake Activity

City Distance Mag. Time & Date
Minimum magnitude displayed is 2.5.

Coastal Water Temperatures

Place Temperature

Stations

Nearby Weather Stations

Station Location Temp. Windchill Dew Point Humidity Wind Precip. Elev Updated Type
                   

Watches & Warnings

Winter Weather Advisory
Issued: 3:30 AM EST Feb. 14, 2016 – National Weather Service

... Winter Weather Advisory remains in effect from 8 am this
morning to midnight EST tonight...

* timing... snow developing by mid morning Sunday and continuing
the rest of the day and gradually diminishing Sunday night.

* Main impact... snow covered roads and poor travel conditions.
Snow accumulations of up to three inches are possible.

Precautionary/preparedness actions...

A Winter Weather Advisory for snow means that periods of snow
will cause primarily travel difficulties. Be prepared for snow
covered roads and limited visibilities... and use caution while
driving.